createdAt,value
2023-03-29T00:00:50.970Z,16.78
2023-03-29T00:01:51.006Z,16.84
2023-03-29T00:02:51.157Z,16.81
2023-03-29T00:03:51.171Z,16.92
2023-03-29T00:04:51.167Z,16.79
2023-03-29T00:05:51.204Z,16.89
2023-03-29T00:06:51.269Z,16.92
2023-03-29T00:07:51.305Z,16.89
2023-03-29T00:08:51.376Z,16.93
2023-03-29T00:09:51.433Z,16.84
2023-03-29T00:10:51.495Z,16.92
2023-03-29T00:11:51.539Z,16.87
2023-03-29T00:12:51.588Z,16.90
2023-03-29T00:13:51.623Z,16.89
2023-03-29T00:14:51.679Z,16.87
2023-03-29T00:15:51.774Z,16.90
2023-03-29T00:16:51.825Z,16.84
2023-03-29T00:17:51.865Z,16.90
2023-03-29T00:18:51.940Z,16.84
2023-03-29T00:19:51.990Z,16.87
2023-03-29T00:20:52.049Z,16.87
2023-03-29T00:21:52.076Z,16.86
2023-03-29T00:22:52.136Z,16.92
2023-03-29T00:23:52.213Z,16.87
2023-03-29T00:24:52.266Z,16.82
2023-03-29T00:25:52.357Z,16.86
2023-03-29T00:26:52.390Z,16.84
2023-03-29T00:27:52.452Z,16.90
2023-03-29T00:28:52.545Z,16.83
2023-03-29T00:29:52.578Z,16.84
2023-03-29T00:30:52.683Z,16.86
2023-03-29T00:31:52.836Z,16.90
2023-03-29T00:32:52.767Z,16.91
2023-03-29T00:33:52.788Z,16.90
2023-03-29T00:34:52.862Z,16.90
2023-03-29T00:35:52.925Z,16.87
2023-03-29T00:36:53.011Z,16.92
2023-03-29T00:37:53.068Z,16.93
2023-03-29T00:38:53.064Z,16.85
2023-03-29T00:39:53.126Z,16.85
2023-03-29T00:40:53.197Z,16.93
2023-03-29T00:41:53.266Z,16.84
2023-03-29T00:42:53.301Z,16.87
2023-03-29T00:43:53.362Z,16.90
2023-03-29T00:44:53.412Z,16.84
2023-03-29T00:45:53.600Z,16.96
2023-03-29T00:46:53.584Z,16.85
2023-03-29T00:47:53.626Z,16.90
2023-03-29T00:48:53.653Z,16.93
2023-03-29T00:49:53.722Z,16.88
2023-03-29T00:50:53.760Z,16.91
2023-03-29T00:51:53.838Z,16.86
2023-03-29T00:52:53.889Z,16.85
2023-03-29T00:53:53.947Z,16.95
2023-03-29T00:54:54.013Z,16.96
2023-03-29T00:55:54.078Z,16.91
2023-03-29T00:56:54.150Z,16.99
2023-03-29T00:57:54.180Z,16.96
2023-03-29T00:58:54.240Z,16.93
2023-03-29T00:59:54.293Z,17.02
2023-03-29T01:00:54.334Z,16.91
2023-03-29T01:01:54.797Z,17.02
2023-03-29T01:02:54.615Z,16.99
2023-03-29T01:03:54.726Z,16.99
2023-03-29T01:04:54.615Z,16.96
2023-03-29T01:05:54.634Z,17.08
2023-03-29T01:06:54.733Z,16.94
2023-03-29T01:07:54.737Z,17.03
2023-03-29T01:08:54.801Z,17.07
2023-03-29T01:09:54.874Z,17.00
2023-03-29T01:10:54.917Z,16.99
2023-03-29T01:11:54.967Z,16.99
2023-03-29T01:12:55.046Z,17.08
2023-03-29T01:13:55.093Z,16.99
2023-03-29T01:14:55.171Z,16.96
2023-03-29T01:15:55.260Z,17.01
2023-03-29T01:16:55.367Z,17.03
2023-03-29T01:17:55.450Z,17.03
2023-03-29T01:18:55.418Z,17.02
2023-03-29T01:19:55.467Z,16.97
2023-03-29T01:20:55.546Z,17.01
2023-03-29T01:21:55.608Z,17.03
2023-03-29T01:22:55.676Z,17.07
2023-03-29T01:23:55.734Z,16.98
2023-03-29T01:24:55.797Z,17.03
2023-03-29T01:25:55.855Z,17.05
2023-03-29T01:26:55.923Z,17.11
2023-03-29T01:27:55.980Z,17.16
2023-03-29T01:28:56.064Z,17.09
2023-03-29T01:29:56.113Z,17.11
2023-03-29T01:30:56.188Z,17.13
2023-03-29T01:31:56.278Z,17.08
2023-03-29T01:32:56.371Z,17.08
2023-03-29T01:33:56.345Z,17.13
2023-03-29T01:34:56.411Z,17.11
2023-03-29T01:35:56.515Z,17.13
2023-03-29T01:36:56.567Z,17.14
2023-03-29T01:37:56.611Z,17.13
2023-03-29T01:38:56.697Z,17.16
2023-03-29T01:39:56.740Z,17.11
2023-03-29T01:40:56.795Z,17.08
2023-03-29T01:41:56.845Z,17.11
2023-03-29T01:42:56.942Z,17.14
2023-03-29T01:43:57.001Z,17.17
2023-03-29T01:44:57.065Z,17.19
2023-03-29T01:45:57.127Z,17.16
2023-03-29T01:46:57.174Z,17.19
2023-03-29T01:47:57.263Z,17.16
2023-03-29T01:48:57.324Z,17.23
2023-03-29T01:49:57.374Z,17.23
2023-03-29T01:50:57.441Z,17.17
2023-03-29T01:51:57.499Z,17.23
2023-03-29T01:52:57.739Z,17.23
2023-03-29T01:53:57.625Z,17.28
2023-03-29T01:54:57.700Z,17.28
2023-03-29T01:55:57.758Z,17.28
2023-03-29T01:56:57.842Z,17.30
2023-03-29T01:57:57.886Z,17.30
2023-03-29T01:58:57.936Z,17.29
2023-03-29T01:59:58.019Z,17.32
2023-03-29T02:00:58.136Z,17.32
2023-03-29T02:01:58.202Z,17.35
2023-03-29T02:02:58.315Z,17.37
2023-03-29T02:03:58.275Z,17.34
2023-03-29T02:04:58.311Z,17.30
2023-03-29T02:05:58.374Z,17.38
2023-03-29T02:06:58.457Z,17.38
2023-03-29T02:07:58.524Z,17.44
2023-03-29T02:08:58.602Z,17.38
2023-03-29T02:09:58.648Z,17.38
2023-03-29T02:10:58.702Z,17.44
2023-03-29T02:11:58.753Z,17.43
2023-03-29T02:12:58.869Z,17.41
2023-03-29T02:13:58.895Z,17.44
2023-03-29T02:14:58.952Z,17.50
2023-03-29T02:15:59.114Z,17.46
2023-03-29T02:16:59.098Z,17.44
2023-03-29T02:17:59.160Z,17.49
2023-03-29T02:18:59.201Z,17.52
2023-03-29T02:19:59.279Z,17.50
2023-03-29T02:20:59.638Z,17.56
2023-03-29T02:21:59.398Z,17.49
2023-03-29T02:22:59.465Z,17.56
2023-03-29T02:23:59.521Z,17.56
2023-03-29T02:24:59.580Z,17.59
2023-03-29T02:25:59.653Z,17.61
2023-03-29T02:26:59.715Z,17.58
2023-03-29T02:27:59.760Z,17.64
2023-03-29T02:28:59.829Z,17.61
2023-03-29T02:29:59.911Z,17.61
2023-03-29T02:31:00.226Z,17.62
2023-03-29T02:32:00.037Z,17.64
2023-03-29T02:33:00.238Z,17.65
2023-03-29T02:34:00.153Z,17.65
2023-03-29T02:35:00.234Z,17.70
2023-03-29T02:36:00.308Z,17.68
2023-03-29T02:37:00.350Z,17.71
2023-03-29T02:38:00.410Z,17.73
2023-03-29T02:39:00.471Z,17.74
2023-03-29T02:40:00.526Z,17.71
2023-03-29T02:41:00.768Z,17.74
2023-03-29T02:42:00.677Z,17.71
2023-03-29T02:43:00.726Z,17.76
2023-03-29T02:44:00.785Z,17.79
2023-03-29T02:45:00.854Z,17.76
2023-03-29T02:46:00.901Z,17.85
2023-03-29T02:47:01.005Z,17.82
2023-03-29T02:48:01.096Z,17.80
2023-03-29T02:49:01.120Z,17.82
2023-03-29T02:50:01.183Z,17.87
2023-03-29T02:51:01.488Z,17.77
2023-03-29T02:52:01.300Z,17.80
2023-03-29T02:53:01.378Z,17.82
2023-03-29T02:54:01.422Z,17.85
2023-03-29T02:55:01.477Z,17.89
2023-03-29T02:56:01.536Z,17.88
2023-03-29T02:57:01.619Z,17.92
2023-03-29T02:58:01.685Z,17.94
2023-03-29T02:59:01.731Z,17.88
2023-03-29T03:00:01.789Z,17.91
2023-03-29T03:01:02.025Z,17.93
2023-03-29T03:02:02.028Z,17.92
2023-03-29T03:03:02.194Z,17.94
2023-03-29T03:04:02.096Z,17.88
2023-03-29T03:05:02.116Z,17.91
2023-03-29T03:06:02.166Z,17.94
2023-03-29T03:07:02.245Z,17.95
2023-03-29T03:08:02.311Z,17.95
2023-03-29T03:09:02.399Z,17.92
2023-03-29T03:10:02.454Z,17.96
2023-03-29T03:11:02.782Z,17.99
2023-03-29T03:12:02.575Z,18.00
2023-03-29T03:13:02.650Z,18.00
2023-03-29T03:14:02.698Z,18.00
2023-03-29T03:15:02.775Z,17.98
2023-03-29T03:16:02.881Z,17.99
2023-03-29T03:17:04.684Z,18.02
2023-03-29T03:18:02.999Z,18.05
2023-03-29T03:19:03.010Z,18.03
2023-03-29T03:20:03.082Z,18.02
2023-03-29T03:21:03.239Z,18.05
2023-03-29T03:22:03.227Z,18.06
2023-03-29T03:23:03.277Z,17.99
2023-03-29T03:24:03.325Z,18.09
2023-03-29T03:25:03.391Z,18.03
2023-03-29T03:26:03.440Z,18.08
2023-03-29T03:27:03.538Z,18.06
2023-03-29T03:28:03.572Z,18.08
2023-03-29T03:29:03.657Z,18.05
2023-03-29T03:30:03.725Z,18.09
2023-03-29T03:31:03.889Z,18.11
2023-03-29T03:32:03.965Z,18.08
2023-03-29T03:33:03.943Z,18.05
2023-03-29T03:34:03.975Z,18.09
2023-03-29T03:35:04.018Z,18.08
2023-03-29T03:36:04.125Z,18.05
2023-03-29T03:37:04.172Z,18.09
2023-03-29T03:38:04.256Z,18.11
2023-03-29T03:39:04.277Z,18.11
2023-03-29T03:40:04.352Z,18.09
2023-03-29T03:41:04.834Z,18.15
2023-03-29T03:42:07.239Z,18.14
2023-03-29T03:43:04.495Z,18.12
2023-03-29T03:44:04.493Z,18.14
2023-03-29T03:45:04.466Z,18.14
2023-03-29T03:46:04.492Z,18.17
2023-03-29T03:47:04.446Z,18.17
2023-03-29T03:48:04.446Z,18.20
2023-03-29T03:49:04.433Z,18.21
2023-03-29T03:50:04.422Z,18.21
2023-03-29T03:51:04.657Z,18.18
2023-03-29T03:52:04.440Z,18.18
2023-03-29T03:53:04.393Z,18.23
2023-03-29T03:54:04.383Z,18.14
2023-03-29T03:55:04.400Z,18.21
2023-03-29T03:56:04.385Z,18.15
2023-03-29T03:57:04.478Z,18.21
2023-03-29T03:58:04.376Z,18.24
2023-03-29T03:59:04.365Z,18.23
2023-03-29T04:00:04.356Z,18.26
2023-03-29T04:01:04.381Z,18.24
2023-03-29T04:02:04.406Z,18.24
2023-03-29T04:03:04.506Z,18.23
2023-03-29T04:04:04.431Z,18.20
2023-03-29T04:05:04.347Z,18.20
2023-03-29T04:06:04.336Z,18.23
2023-03-29T04:07:04.391Z,18.21
2023-03-29T04:08:04.441Z,18.27
2023-03-29T04:09:04.524Z,18.24
2023-03-29T04:10:04.646Z,18.29
2023-03-29T04:11:04.774Z,18.27
2023-03-29T04:12:04.721Z,18.26
2023-03-29T04:13:04.789Z,18.27
2023-03-29T04:14:04.840Z,18.23
2023-03-29T04:15:04.913Z,18.29
2023-03-29T04:16:05.063Z,18.26
2023-03-29T04:17:05.048Z,18.27
2023-03-29T04:18:05.270Z,18.30
2023-03-29T04:19:05.168Z,18.27
2023-03-29T04:20:05.223Z,18.30
2023-03-29T04:21:05.292Z,18.30
2023-03-29T04:22:05.351Z,18.27
2023-03-29T04:23:05.405Z,18.33
2023-03-29T04:24:05.476Z,18.29
2023-03-29T04:25:05.550Z,18.36
2023-03-29T04:26:05.595Z,18.27
2023-03-29T04:27:05.677Z,18.33
2023-03-29T04:28:05.733Z,18.35
2023-03-29T04:29:05.833Z,18.35
2023-03-29T04:30:05.859Z,18.35
2023-03-29T04:31:06.059Z,18.35
2023-03-29T04:32:05.994Z,18.33
2023-03-29T04:33:06.091Z,18.35
2023-03-29T04:34:06.114Z,18.32
2023-03-29T04:35:06.165Z,18.32
2023-03-29T04:36:06.266Z,18.33
2023-03-29T04:37:06.301Z,18.36
2023-03-29T04:38:06.374Z,18.38
2023-03-29T04:39:06.453Z,18.36
2023-03-29T04:40:06.516Z,18.33
2023-03-29T04:41:06.550Z,18.38
2023-03-29T04:42:06.616Z,18.35
2023-03-29T04:43:06.670Z,18.36
2023-03-29T04:44:06.800Z,18.35
2023-03-29T04:45:06.947Z,18.38
2023-03-29T04:46:06.967Z,18.38
2023-03-29T04:47:06.940Z,18.36
2023-03-29T04:48:07.056Z,18.41
2023-03-29T04:49:07.044Z,18.36
2023-03-29T04:50:07.127Z,18.44
2023-03-29T04:51:07.190Z,18.39
2023-03-29T04:52:07.251Z,18.39
2023-03-29T04:53:07.309Z,18.42
2023-03-29T04:54:07.391Z,18.36
2023-03-29T04:55:07.422Z,18.36
2023-03-29T04:56:07.500Z,18.44
2023-03-29T04:57:07.601Z,18.38
2023-03-29T04:58:07.616Z,18.42
2023-03-29T04:59:07.706Z,18.42
2023-03-29T05:00:07.753Z,18.44
2023-03-29T05:01:07.821Z,18.42
2023-03-29T05:02:07.978Z,18.39
2023-03-29T05:03:08.047Z,18.41
2023-03-29T05:04:08.560Z,18.39
2023-03-29T05:05:08.110Z,18.42
2023-03-29T05:06:08.174Z,18.41
2023-03-29T05:07:08.234Z,18.47
2023-03-29T05:08:08.290Z,18.41
2023-03-29T05:09:08.363Z,18.47
2023-03-29T05:10:08.435Z,18.44
2023-03-29T05:11:08.489Z,18.41
2023-03-29T05:12:08.557Z,18.42
2023-03-29T05:13:08.602Z,18.50
2023-03-29T05:14:08.681Z,18.44
2023-03-29T05:15:08.751Z,18.47
2023-03-29T05:16:08.858Z,18.50
2023-03-29T05:17:08.877Z,18.47
2023-03-29T05:18:08.995Z,18.50
2023-03-29T05:19:09.007Z,18.48
2023-03-29T05:20:09.065Z,18.44
2023-03-29T05:21:09.146Z,18.47
2023-03-29T05:22:09.198Z,18.48
2023-03-29T05:23:09.249Z,18.48
2023-03-29T05:24:09.325Z,18.51
2023-03-29T05:25:09.377Z,18.48
2023-03-29T05:26:09.439Z,18.53
2023-03-29T05:27:09.498Z,18.53
2023-03-29T05:28:09.577Z,18.66
2023-03-29T05:29:09.641Z,18.61
2023-03-29T05:30:09.854Z,19.20
2023-03-29T05:31:09.850Z,19.21
2023-03-29T05:32:09.855Z,19.11
2023-03-29T05:33:09.909Z,19.17
2023-03-29T05:34:09.938Z,19.23
2023-03-29T05:35:10.370Z,19.30
2023-03-29T05:36:10.075Z,19.34
2023-03-29T05:37:10.087Z,19.47
2023-03-29T05:38:10.132Z,19.72
2023-03-29T05:39:10.189Z,19.94
2023-03-29T05:40:10.495Z,20.13
2023-03-29T05:41:10.274Z,20.39
2023-03-29T05:42:10.305Z,20.40
2023-03-29T05:43:10.342Z,20.57
2023-03-29T05:44:10.365Z,20.81
2023-03-29T05:45:10.424Z,21.09
2023-03-29T05:46:10.498Z,21.47
2023-03-29T05:47:10.455Z,21.26
2023-03-29T05:48:10.527Z,21.42
2023-03-29T05:49:10.523Z,21.46
2023-03-29T05:50:10.595Z,21.50
2023-03-29T05:51:10.548Z,21.49
2023-03-29T05:52:10.585Z,21.57
2023-03-29T05:53:10.572Z,21.73
2023-03-29T05:54:10.596Z,22.08
2023-03-29T05:55:10.618Z,22.08
2023-03-29T05:56:10.612Z,22.09
2023-03-29T05:57:10.689Z,22.04
2023-03-29T05:58:10.647Z,22.05
2023-03-29T05:59:10.622Z,22.08
2023-03-29T06:00:10.629Z,22.11
2023-03-29T06:01:10.644Z,22.06
2023-03-29T06:02:10.790Z,22.65
2023-03-29T06:03:18.052Z,22.60
2023-03-29T06:04:11.717Z,22.52
2023-03-29T06:05:10.677Z,22.49
2023-03-29T06:06:10.621Z,22.55
2023-03-29T06:07:10.621Z,22.64
2023-03-29T06:08:10.620Z,22.72
2023-03-29T06:09:10.604Z,22.75
2023-03-29T06:10:10.595Z,22.77
2023-03-29T06:11:10.696Z,22.78
2023-03-29T06:12:10.573Z,22.75
2023-03-29T06:13:10.591Z,22.85
2023-03-29T06:14:10.582Z,22.71
2023-03-29T06:15:10.557Z,22.77
2023-03-29T06:16:10.565Z,22.88
2023-03-29T06:17:10.670Z,22.92
2023-03-29T06:18:10.594Z,23.06
2023-03-29T06:19:10.524Z,23.10
2023-03-29T06:20:10.520Z,23.23
2023-03-29T06:21:10.532Z,23.21
2023-03-29T06:22:11.344Z,23.27
2023-03-29T06:23:10.530Z,23.33
2023-03-29T06:24:10.527Z,23.21
2023-03-29T06:25:10.485Z,23.26
2023-03-29T06:26:10.501Z,23.20
2023-03-29T06:27:10.495Z,23.26
2023-03-29T06:28:10.480Z,23.08
2023-03-29T06:29:10.462Z,23.13
2023-03-29T06:30:10.463Z,23.23
2023-03-29T06:31:10.544Z,23.31
2023-03-29T06:32:10.888Z,23.28
2023-03-29T06:33:10.640Z,23.28
2023-03-29T06:34:10.536Z,23.46
2023-03-29T06:35:10.560Z,23.30
2023-03-29T06:36:10.601Z,23.38
2023-03-29T06:37:10.637Z,23.38
2023-03-29T06:38:10.685Z,23.54
2023-03-29T06:39:10.736Z,23.45
2023-03-29T06:40:10.769Z,23.52
2023-03-29T06:41:10.831Z,24.03
2023-03-29T06:42:20.765Z,23.89
2023-03-29T06:43:11.881Z,24.11
2023-03-29T06:44:10.867Z,24.07
2023-03-29T06:45:10.861Z,24.03
2023-03-29T06:46:10.941Z,23.85
2023-03-29T06:47:10.900Z,23.71
2023-03-29T06:48:11.428Z,23.74
2023-03-29T06:49:10.832Z,23.77
2023-03-29T06:50:10.806Z,23.67
2023-03-29T06:51:10.855Z,23.81
2023-03-29T06:52:11.432Z,23.78
2023-03-29T06:53:10.941Z,24.06
2023-03-29T06:54:10.963Z,23.78
2023-03-29T06:55:11.021Z,24.18
2023-03-29T06:56:11.043Z,23.86
2023-03-29T06:57:11.441Z,23.99
2023-03-29T06:58:11.406Z,24.12
2023-03-29T06:59:11.169Z,24.43
2023-03-29T07:00:11.207Z,24.22
2023-03-29T07:01:11.224Z,24.23
2023-03-29T07:02:11.327Z,24.22
2023-03-29T07:03:11.462Z,23.93
2023-03-29T07:04:11.395Z,23.83
2023-03-29T07:05:11.436Z,23.78
2023-03-29T07:06:11.446Z,23.67
2023-03-29T07:07:11.506Z,23.78
2023-03-29T07:08:11.888Z,23.74
2023-03-29T07:09:11.734Z,23.73
2023-03-29T07:10:11.691Z,24.03
2023-03-29T07:11:11.774Z,24.06
2023-03-29T07:12:11.833Z,23.94
2023-03-29T07:13:11.896Z,24.01
2023-03-29T07:14:11.999Z,23.87
2023-03-29T07:15:12.010Z,23.80
2023-03-29T07:16:12.124Z,23.31
2023-03-29T07:17:12.130Z,23.42
2023-03-29T07:18:12.191Z,23.79
2023-03-29T07:19:12.266Z,23.74
2023-03-29T07:20:12.331Z,23.80
2023-03-29T07:21:12.410Z,23.70
2023-03-29T07:22:12.460Z,23.57
2023-03-29T07:23:12.509Z,23.56
2023-03-29T07:24:12.574Z,23.21
2023-03-29T07:25:12.643Z,23.34
2023-03-29T07:26:12.700Z,23.02
2023-03-29T07:27:12.913Z,23.40
2023-03-29T07:28:12.911Z,23.25
2023-03-29T07:29:12.869Z,23.40
2023-03-29T07:30:12.908Z,23.46
2023-03-29T07:31:12.950Z,23.49
2023-03-29T07:32:13.030Z,23.52
2023-03-29T07:33:13.559Z,23.51
2023-03-29T07:34:13.133Z,23.48
2023-03-29T07:35:13.226Z,23.39
2023-03-29T07:36:13.322Z,23.44
2023-03-29T07:37:13.434Z,23.38
2023-03-29T07:38:13.386Z,23.30
2023-03-29T07:39:13.449Z,23.36
2023-03-29T07:40:13.514Z,23.37
2023-03-29T07:41:13.510Z,23.35
2023-03-29T07:42:13.562Z,23.35
2023-03-29T07:43:13.644Z,23.22
2023-03-29T07:44:13.708Z,23.31
2023-03-29T07:45:13.747Z,23.40
2023-03-29T07:46:13.796Z,23.50
2023-03-29T07:47:13.806Z,23.53
2023-03-29T07:48:13.900Z,23.46
2023-03-29T07:49:13.894Z,23.45
2023-03-29T07:50:14.413Z,23.41
2023-03-29T07:51:13.989Z,23.46
2023-03-29T07:52:14.126Z,23.42
2023-03-29T07:53:14.059Z,23.62
2023-03-29T07:54:14.114Z,23.72
2023-03-29T07:55:14.397Z,23.59
2023-03-29T07:56:14.187Z,23.52
2023-03-29T07:57:14.282Z,23.83
2023-03-29T07:58:14.275Z,23.85
2023-03-29T07:59:14.312Z,23.92
2023-03-29T08:00:14.411Z,23.91
2023-03-29T08:01:17.171Z,23.81
2023-03-29T08:02:14.373Z,23.97
2023-03-29T08:03:14.434Z,23.99
2023-03-29T08:04:14.466Z,23.99
2023-03-29T08:05:14.452Z,23.89
2023-03-29T08:06:14.367Z,23.96
2023-03-29T08:07:15.758Z,24.12
2023-03-29T08:08:14.573Z,24.32
2023-03-29T08:09:14.582Z,24.29
2023-03-29T08:10:14.653Z,24.23
2023-03-29T08:11:14.654Z,24.09
2023-03-29T08:12:14.707Z,24.05
2023-03-29T08:13:14.733Z,24.02
2023-03-29T08:14:14.771Z,23.98
2023-03-29T08:15:14.962Z,23.91
2023-03-29T08:16:14.883Z,23.92
2023-03-29T08:17:14.875Z,24.05
2023-03-29T08:18:14.986Z,23.89
2023-03-29T08:19:14.985Z,23.79
2023-03-29T08:20:15.471Z,23.67
2023-03-29T08:21:15.038Z,22.77
2023-03-29T08:22:15.106Z,23.12
2023-03-29T08:23:15.146Z,23.31
2023-03-29T08:24:15.225Z,23.46
2023-03-29T08:25:15.420Z,23.52
2023-03-29T08:26:15.280Z,23.42
2023-03-29T08:27:15.342Z,23.56
2023-03-29T08:28:15.420Z,23.49
2023-03-29T08:29:15.439Z,23.49
2023-03-29T08:30:15.500Z,23.46
2023-03-29T08:31:15.551Z,23.57
2023-03-29T08:32:15.543Z,23.70
2023-03-29T08:33:15.657Z,21.11
2023-03-29T08:34:15.596Z,21.53
2023-03-29T08:35:15.612Z,22.29
2023-03-29T08:36:15.684Z,22.53
2023-03-29T08:37:15.694Z,22.77
2023-03-29T08:38:15.940Z,22.97
2023-03-29T08:39:16.816Z,23.00
2023-03-29T08:40:15.745Z,23.27
2023-03-29T08:41:15.729Z,23.29
2023-03-29T08:42:15.733Z,23.51
2023-03-29T08:43:15.949Z,23.61
2023-03-29T08:44:15.764Z,23.66
2023-03-29T08:45:15.785Z,23.62
2023-03-29T08:46:15.864Z,23.57
2023-03-29T08:47:15.833Z,23.39
2023-03-29T08:48:15.864Z,23.30
2023-03-29T08:49:15.932Z,23.35
2023-03-29T08:50:15.989Z,23.31
2023-03-29T08:51:16.059Z,23.31
2023-03-29T08:52:16.105Z,23.28
2023-03-29T08:53:16.168Z,23.37
2023-03-29T08:54:16.227Z,23.55
2023-03-29T08:55:16.254Z,23.62
2023-03-29T08:56:16.297Z,23.47
2023-03-29T08:57:16.403Z,23.44
2023-03-29T08:58:16.390Z,23.63
2023-03-29T08:59:16.428Z,23.73
2023-03-29T09:00:16.482Z,23.80
2023-03-29T09:01:16.549Z,23.96
2023-03-29T09:02:16.680Z,23.98
2023-03-29T09:03:16.746Z,23.93
2023-03-29T09:04:16.632Z,23.78
2023-03-29T09:05:16.671Z,23.81
2023-03-29T09:06:16.722Z,23.89
2023-03-29T09:07:16.776Z,23.75
2023-03-29T09:08:16.823Z,23.56
2023-03-29T09:09:16.831Z,23.50
2023-03-29T09:10:16.847Z,23.60
2023-03-29T09:11:16.860Z,23.73
2023-03-29T09:12:16.890Z,23.70
2023-03-29T09:13:17.028Z,23.68
2023-03-29T09:14:16.934Z,23.64
2023-03-29T09:15:16.943Z,23.54
2023-03-29T09:16:17.006Z,23.56
2023-03-29T09:17:16.994Z,23.49
2023-03-29T09:18:17.541Z,23.66
2023-03-29T09:19:17.030Z,23.69
2023-03-29T09:20:17.027Z,23.67
2023-03-29T09:21:17.075Z,23.64
2023-03-29T09:22:17.057Z,23.48
2023-03-29T09:23:17.434Z,23.65
2023-03-29T09:24:17.116Z,23.73
2023-03-29T09:25:17.122Z,23.63
2023-03-29T09:26:17.133Z,23.73
2023-03-29T09:27:17.146Z,23.98
2023-03-29T09:28:17.440Z,23.82
2023-03-29T09:29:17.181Z,23.74
2023-03-29T09:30:17.211Z,23.78
2023-03-29T09:31:17.268Z,23.79
2023-03-29T09:32:17.272Z,23.84
2023-03-29T09:33:17.444Z,23.71
2023-03-29T09:34:17.291Z,23.66
2023-03-29T09:35:17.321Z,23.62
2023-03-29T09:36:17.381Z,23.58
2023-03-29T09:37:17.362Z,23.54
2023-03-29T09:38:17.384Z,23.48
2023-03-29T09:39:17.409Z,23.48
2023-03-29T09:40:17.502Z,23.58
2023-03-29T09:41:17.442Z,23.62
2023-03-29T09:42:17.478Z,23.56
2023-03-29T09:43:17.512Z,23.43
2023-03-29T09:44:29.835Z,23.40
2023-03-29T09:45:18.530Z,23.36
2023-03-29T09:46:17.607Z,23.34
2023-03-29T09:47:17.525Z,23.58
2023-03-29T09:48:17.977Z,23.37
2023-03-29T09:49:17.612Z,23.40
2023-03-29T09:50:30.263Z,23.34
2023-03-29T09:51:18.498Z,23.34
2023-03-29T09:52:17.473Z,23.28
2023-03-29T09:53:17.472Z,23.25
2023-03-29T09:54:17.496Z,23.13
2023-03-29T09:55:17.480Z,23.10
2023-03-29T09:56:17.476Z,23.04
2023-03-29T09:57:17.514Z,22.94
2023-03-29T09:58:17.519Z,22.83
2023-03-29T09:59:17.484Z,22.78
2023-03-29T10:00:17.448Z,22.76
2023-03-29T10:01:17.530Z,22.76
2023-03-29T10:02:17.434Z,22.65
2023-03-29T10:03:17.414Z,22.65
2023-03-29T10:04:17.538Z,22.62
2023-03-29T10:05:17.454Z,22.59
2023-03-29T10:06:17.520Z,22.56
2023-03-29T10:07:17.528Z,22.53
2023-03-29T10:08:19.445Z,22.50
2023-03-29T10:09:17.981Z,22.45
2023-03-29T10:10:17.661Z,22.45
2023-03-29T10:11:17.695Z,22.39
2023-03-29T10:12:17.743Z,22.33
2023-03-29T10:13:17.776Z,22.29
2023-03-29T10:14:17.825Z,22.32
2023-03-29T10:15:29.186Z,22.30
2023-03-29T10:16:18.866Z,22.17
2023-03-29T10:17:17.851Z,22.09
2023-03-29T10:18:17.841Z,22.12
2023-03-29T10:19:17.962Z,22.11
2023-03-29T10:20:17.846Z,22.00
2023-03-29T10:21:17.836Z,21.95
2023-03-29T10:22:17.798Z,22.00
2023-03-29T10:23:17.807Z,22.00
2023-03-29T10:24:17.822Z,22.35
2023-03-29T10:25:17.806Z,22.16
2023-03-29T10:26:17.781Z,22.34
2023-03-29T10:27:17.789Z,22.42
2023-03-29T10:28:17.756Z,22.75
2023-03-29T10:29:17.764Z,23.14
2023-03-29T10:30:17.811Z,22.99
2023-03-29T10:31:17.988Z,23.79
2023-03-29T10:32:17.930Z,23.63
2023-03-29T10:33:17.911Z,23.51
2023-03-29T10:34:17.926Z,23.88
2023-03-29T10:35:17.950Z,24.27
2023-03-29T10:36:18.033Z,24.84
2023-03-29T10:37:18.034Z,24.77
2023-03-29T10:38:18.061Z,25.05
2023-03-29T10:39:18.085Z,24.94
2023-03-29T10:40:18.476Z,24.82
2023-03-29T10:41:18.091Z,24.35
2023-03-29T10:42:18.109Z,24.42
2023-03-29T10:43:18.155Z,24.61
2023-03-29T10:44:18.229Z,24.39
2023-03-29T10:45:18.288Z,24.30
2023-03-29T10:46:18.384Z,24.35
2023-03-29T10:47:18.358Z,23.86
2023-03-29T10:48:18.378Z,23.86
2023-03-29T10:49:18.409Z,24.31
2023-03-29T10:50:18.425Z,24.44
2023-03-29T10:51:18.451Z,24.36
2023-03-29T10:52:18.454Z,24.22
2023-03-29T10:53:18.469Z,24.19
2023-03-29T10:54:18.448Z,24.15
2023-03-29T10:55:18.473Z,23.82
2023-03-29T10:56:18.460Z,23.62
2023-03-29T10:57:19.434Z,23.74
2023-03-29T10:58:18.466Z,23.70
2023-03-29T10:59:18.459Z,23.70
2023-03-29T11:00:18.522Z,23.54
2023-03-29T11:01:18.496Z,23.67
2023-03-29T11:02:18.478Z,23.75
2023-03-29T11:03:20.970Z,23.95
2023-03-29T11:04:18.456Z,24.00
2023-03-29T11:05:18.453Z,24.19
2023-03-29T11:06:18.429Z,24.28
2023-03-29T11:07:18.423Z,24.28
2023-03-29T11:08:18.412Z,24.36
2023-03-29T11:09:18.411Z,24.25
2023-03-29T11:10:18.413Z,24.00
2023-03-29T11:11:18.406Z,24.20
2023-03-29T11:12:18.411Z,24.28
2023-03-29T11:13:18.407Z,24.36
2023-03-29T11:14:18.434Z,24.83
2023-03-29T11:15:18.494Z,24.28
2023-03-29T11:16:18.420Z,23.63
2023-03-29T11:17:18.363Z,24.11
2023-03-29T11:18:18.348Z,23.88
2023-03-29T11:19:18.359Z,23.97
2023-03-29T11:20:18.365Z,23.95
2023-03-29T11:21:18.333Z,23.91
2023-03-29T11:22:18.312Z,23.84
2023-03-29T11:23:18.330Z,23.19
2023-03-29T11:24:18.315Z,22.94
2023-03-29T11:25:18.369Z,22.99
2023-03-29T11:26:18.303Z,23.09
2023-03-29T11:27:18.293Z,23.20
2023-03-29T11:28:18.285Z,23.46
2023-03-29T11:29:18.267Z,23.56
2023-03-29T11:30:18.283Z,23.88
2023-03-29T11:31:18.354Z,23.77
2023-03-29T11:32:18.274Z,23.60
2023-03-29T11:33:18.251Z,23.53
2023-03-29T11:34:18.241Z,23.48
2023-03-29T11:35:18.249Z,23.52
2023-03-29T11:36:18.326Z,23.59
2023-03-29T11:37:18.234Z,23.61
2023-03-29T11:38:18.209Z,23.72
2023-03-29T11:39:18.201Z,23.76
2023-03-29T11:40:18.194Z,23.68
2023-03-29T11:41:18.197Z,23.67
2023-03-29T11:42:18.184Z,23.70
2023-03-29T11:43:18.182Z,23.65
2023-03-29T11:44:18.171Z,23.62
2023-03-29T11:45:18.173Z,23.55
2023-03-29T11:46:18.200Z,23.44
2023-03-29T11:47:18.155Z,23.45
2023-03-29T11:48:18.147Z,23.34
2023-03-29T11:49:18.139Z,23.28
2023-03-29T11:50:18.153Z,23.23
2023-03-29T11:51:18.116Z,23.24
2023-03-29T11:52:18.126Z,23.18
2023-03-29T11:53:18.109Z,23.21
2023-03-29T11:54:18.109Z,23.11
2023-03-29T11:55:18.101Z,23.08
2023-03-29T11:56:18.519Z,23.05
2023-03-29T11:57:18.519Z,23.05
2023-03-29T11:58:18.080Z,22.99
2023-03-29T11:59:18.056Z,22.95
2023-03-29T12:00:18.075Z,22.99
2023-03-29T12:01:18.126Z,22.81
2023-03-29T12:02:18.553Z,22.92
2023-03-29T12:03:18.631Z,23.05
2023-03-29T12:04:18.327Z,23.10
2023-03-29T12:05:18.361Z,23.10
2023-03-29T12:06:18.436Z,23.12
2023-03-29T12:07:18.503Z,23.96
2023-03-29T12:08:19.011Z,24.36
2023-03-29T12:09:18.622Z,24.46
2023-03-29T12:10:18.676Z,24.48
2023-03-29T12:11:18.712Z,24.53
2023-03-29T12:12:18.785Z,24.46
2023-03-29T12:13:19.009Z,24.55
2023-03-29T12:14:18.867Z,24.68
2023-03-29T12:15:18.910Z,24.87
2023-03-29T12:16:19.009Z,24.92
2023-03-29T12:17:19.028Z,25.04
2023-03-29T12:18:19.033Z,25.27
2023-03-29T12:19:19.076Z,25.30
2023-03-29T12:20:19.104Z,25.21
2023-03-29T12:21:19.136Z,25.53
2023-03-29T12:22:19.150Z,25.49
2023-03-29T12:23:19.204Z,25.79
2023-03-29T12:24:19.235Z,25.81
2023-03-29T12:25:21.316Z,25.70
2023-03-29T12:26:19.263Z,25.49
2023-03-29T12:27:19.246Z,25.09
2023-03-29T12:28:19.254Z,25.04
2023-03-29T12:29:19.218Z,24.42
2023-03-29T12:30:19.247Z,23.86
2023-03-29T12:31:19.270Z,23.83
2023-03-29T12:32:19.228Z,23.71
2023-03-29T12:33:19.233Z,23.74
2023-03-29T12:34:19.191Z,23.27
2023-03-29T12:35:19.193Z,23.47
2023-03-29T12:36:19.211Z,24.05
2023-03-29T12:37:19.192Z,23.86
2023-03-29T12:38:19.155Z,23.86
2023-03-29T12:39:19.146Z,23.77
2023-03-29T12:40:19.155Z,23.83
2023-03-29T12:41:19.282Z,24.71
2023-03-29T12:42:19.122Z,24.34
2023-03-29T12:43:19.160Z,24.17
2023-03-29T12:44:19.130Z,24.45
2023-03-29T12:45:19.155Z,24.57
2023-03-29T12:46:19.136Z,24.37
2023-03-29T12:47:19.105Z,24.24
2023-03-29T12:48:19.100Z,24.24
2023-03-29T12:49:21.116Z,24.51
2023-03-29T12:50:19.107Z,24.68
2023-03-29T12:51:19.071Z,24.96
2023-03-29T12:52:19.082Z,24.81
2023-03-29T12:53:19.087Z,24.97